createdAt,value
2023-04-18T00:02:54.300Z,10.86
2023-04-18T00:07:53.536Z,10.70
2023-04-18T00:12:52.488Z,10.71
2023-04-18T00:17:51.381Z,10.80
2023-04-18T00:22:53.231Z,10.67
2023-04-18T00:27:52.050Z,10.57
2023-04-18T00:32:51.020Z,10.65
2023-04-18T00:37:52.009Z,10.63
2023-04-18T00:42:50.811Z,10.70
2023-04-18T00:47:49.740Z,10.63
2023-04-18T00:52:49.106Z,10.68
2023-04-18T00:57:49.174Z,10.59
2023-04-18T01:02:50.027Z,10.77
2023-04-18T01:07:50.933Z,10.83
2023-04-18T01:12:51.088Z,10.72
2023-04-18T01:17:49.975Z,10.76
2023-04-18T01:22:48.934Z,10.72
2023-04-18T01:27:49.076Z,10.75
2023-04-18T01:32:47.898Z,10.69
2023-04-18T01:37:46.834Z,10.71
2023-04-18T01:42:45.656Z,10.68
2023-04-18T01:47:46.164Z,10.69
2023-04-18T01:52:45.140Z,10.72
2023-04-18T01:57:44.218Z,10.70
2023-04-18T02:02:43.354Z,10.74
2023-04-18T02:07:43.904Z,10.73
2023-04-18T02:12:43.213Z,10.70
2023-04-18T02:17:42.503Z,10.66
2023-04-18T02:22:41.356Z,10.58
2023-04-18T02:27:41.596Z,10.67
2023-04-18T02:32:40.473Z,10.63
2023-04-18T02:37:39.300Z,10.65
2023-04-18T02:42:38.140Z,10.57
2023-04-18T02:47:51.293Z,10.59
2023-04-18T02:52:54.003Z,10.58
2023-04-18T02:57:56.046Z,10.39
2023-04-18T03:03:31.486Z,10.44
2023-04-18T03:08:50.136Z,10.53
2023-04-18T03:13:49.371Z,10.58
2023-04-18T03:18:50.320Z,10.56
2023-04-18T03:23:50.311Z,10.54
2023-04-18T03:28:49.342Z,10.32
2023-04-18T03:33:51.711Z,10.44
2023-04-18T03:38:52.008Z,10.48
2023-04-18T03:43:51.121Z,10.39
2023-04-18T03:48:51.330Z,10.34
2023-04-18T03:53:50.380Z,10.41
2023-04-18T03:58:50.201Z,10.42
2023-04-18T04:03:52.116Z,10.42
2023-04-18T04:08:52.001Z,10.53
2023-04-18T04:13:55.381Z,10.40
2023-04-18T04:19:00.877Z,10.56
2023-04-18T04:24:08.617Z,10.53
2023-04-18T04:29:15.356Z,10.59
2023-04-18T04:34:17.835Z,10.68
2023-04-18T04:39:18.120Z,10.69
2023-04-18T04:44:29.723Z,10.78
2023-04-18T04:49:30.216Z,10.85
2023-04-18T04:54:29.190Z,10.98
2023-04-18T04:59:28.609Z,11.00
2023-04-18T05:04:27.730Z,11.07
2023-04-18T05:09:28.318Z,11.27
2023-04-18T05:14:27.801Z,11.47
2023-04-18T05:20:04.070Z,11.63
2023-04-18T05:25:04.478Z,11.66
2023-04-18T05:30:03.245Z,11.83
2023-04-18T05:35:02.211Z,11.94
2023-04-18T05:40:01.295Z,12.12
2023-04-18T05:45:01.637Z,12.33
2023-04-18T05:50:00.490Z,12.48
2023-04-18T05:54:59.519Z,12.62
2023-04-18T05:59:58.411Z,12.67
2023-04-18T06:04:59.693Z,12.73
2023-04-18T06:09:58.958Z,12.94
2023-04-18T06:14:57.866Z,13.04
2023-04-18T06:19:58.123Z,13.02
2023-04-18T06:24:59.850Z,13.16
2023-04-18T06:29:58.885Z,13.33
2023-04-18T06:34:59.209Z,13.29
2023-04-18T06:39:59.192Z,13.62
2023-04-18T06:44:58.202Z,13.78
2023-04-18T06:49:58.501Z,14.03
2023-04-18T06:55:03.232Z,14.02
2023-04-18T07:00:01.922Z,13.86
2023-04-18T07:05:02.214Z,13.80
2023-04-18T07:10:01.114Z,14.10
2023-04-18T07:15:00.057Z,14.27
2023-04-18T07:20:01.588Z,14.21
2023-04-18T07:25:00.759Z,14.40
2023-04-18T07:29:59.568Z,14.66
2023-04-18T07:34:59.295Z,14.73
2023-04-18T07:40:00.115Z,14.79
2023-04-18T07:44:59.794Z,15.36
2023-04-18T07:49:58.450Z,15.33
2023-04-18T07:54:57.424Z,16.77
2023-04-18T07:59:57.746Z,17.74
2023-04-18T08:04:56.800Z,17.44
2023-04-18T08:09:57.180Z,17.12
2023-04-18T08:14:57.771Z,16.78
2023-04-18T08:19:57.147Z,16.45
2023-04-18T08:25:05.105Z,16.44
2023-04-18T08:30:12.183Z,16.77
2023-04-18T08:35:14.491Z,16.81
2023-04-18T08:40:13.883Z,16.83
2023-04-18T08:45:15.204Z,16.69
2023-04-18T08:50:14.093Z,17.10
2023-04-18T08:55:12.904Z,17.18
2023-04-18T09:00:14.605Z,17.09
2023-04-18T09:05:15.307Z,17.04
2023-04-18T09:10:15.675Z,17.12
2023-04-18T09:15:18.988Z,17.19
2023-04-18T09:20:30.730Z,16.85
2023-04-18T09:25:34.612Z,17.01
2023-04-18T09:30:38.273Z,17.21
2023-04-18T09:35:40.903Z,17.36
2023-04-18T09:40:46.131Z,17.79
2023-04-18T09:45:48.856Z,17.86
2023-04-18T09:50:51.068Z,18.02
2023-04-18T09:55:53.261Z,17.87
2023-04-18T10:00:55.786Z,17.88
2023-04-18T10:05:57.678Z,18.06
2023-04-18T10:10:58.995Z,18.05
2023-04-18T10:16:00.189Z,17.82
2023-04-18T10:21:04.571Z,17.83
2023-04-18T10:26:04.518Z,17.81
2023-04-18T10:31:05.837Z,17.51
2023-04-18T10:36:16.303Z,17.28
2023-04-18T10:41:27.204Z,17.08
2023-04-18T10:46:32.604Z,16.86
2023-04-18T10:51:32.061Z,16.90
2023-04-18T10:56:31.109Z,17.09
2023-04-18T11:01:33.558Z,17.13
2023-04-18T11:06:32.526Z,17.13
2023-04-18T11:11:31.577Z,17.24
2023-04-18T11:16:33.456Z,17.34
2023-04-18T11:21:32.330Z,17.27
2023-04-18T11:26:31.343Z,16.93
2023-04-18T11:31:33.275Z,17.05
2023-04-18T11:36:35.287Z,17.32
2023-04-18T11:41:34.239Z,17.77
2023-04-18T11:46:39.552Z,17.67
2023-04-18T11:51:39.997Z,17.50
2023-04-18T11:56:48.623Z,17.65
2023-04-18T12:01:48.321Z,17.69
2023-04-18T12:06:56.119Z,17.65
2023-04-18T12:12:06.705Z,17.34
2023-04-18T12:17:10.483Z,17.37
2023-04-18T12:22:30.669Z,17.37
2023-04-18T12:27:56.225Z,17.49
2023-04-18T12:33:00.572Z,17.60
2023-04-18T12:38:18.613Z,17.82
2023-04-18T12:43:47.830Z,17.89
2023-04-18T12:48:59.536Z,17.91
2023-04-18T12:54:00.733Z,17.85
2023-04-18T12:59:01.030Z,17.94
2023-04-18T13:04:11.940Z,17.86
2023-04-18T13:09:13.821Z,17.80
2023-04-18T13:14:21.618Z,17.92
2023-04-18T13:19:24.952Z,18.09
2023-04-18T13:24:44.516Z,18.04
2023-04-18T13:29:47.581Z,18.03
2023-04-18T13:34:50.576Z,18.04
2023-04-18T13:39:51.795Z,18.07
2023-04-18T13:44:50.857Z,18.02
2023-04-18T13:49:50.494Z,18.01
2023-04-18T13:54:54.437Z,17.94
2023-04-18T14:00:00.387Z,17.67
2023-04-18T14:05:07.011Z,17.81
2023-04-18T14:10:59.343Z,17.81
2023-04-18T14:16:01.174Z,17.85
2023-04-18T14:21:12.270Z,17.88
2023-04-18T14:26:14.065Z,18.09
2023-04-18T14:31:14.101Z,18.25
2023-04-18T14:36:15.014Z,18.40
2023-04-18T14:41:15.478Z,18.49
2023-04-18T14:46:16.495Z,18.47
2023-04-18T14:51:16.340Z,18.41
2023-04-18T14:56:21.267Z,18.45
2023-04-18T15:01:20.197Z,18.29
2023-04-18T15:06:19.650Z,18.12
2023-04-18T15:11:20.550Z,18.01
2023-04-18T15:16:19.873Z,17.99
2023-04-18T15:21:18.898Z,17.89
2023-04-18T15:26:19.884Z,17.97
2023-04-18T15:31:19.114Z,18.02
2023-04-18T15:36:18.930Z,18.02
2023-04-18T15:41:19.383Z,18.03
2023-04-18T15:46:18.523Z,17.89
2023-04-18T15:51:17.618Z,17.72
2023-04-18T15:56:18.549Z,17.64
2023-04-18T16:01:19.614Z,17.51
2023-04-18T16:06:23.536Z,17.23
2023-04-18T16:11:26.245Z,17.20
2023-04-18T16:16:28.584Z,17.20
2023-04-18T16:21:28.366Z,17.03
2023-04-18T16:26:28.857Z,17.00
2023-04-18T16:31:29.233Z,17.00
2023-04-18T16:36:30.157Z,17.00
2023-04-18T16:41:29.126Z,16.95
2023-04-18T16:46:32.516Z,16.93
2023-04-18T16:51:32.857Z,16.90
2023-04-18T16:56:32.082Z,16.92
2023-04-18T17:01:34.053Z,16.95
2023-04-18T17:06:33.480Z,16.95
2023-04-18T17:11:35.400Z,16.96
2023-04-18T17:16:44.707Z,16.93
2023-04-18T17:21:45.626Z,16.83
2023-04-18T17:26:44.911Z,16.81
2023-04-18T17:31:45.906Z,16.77
2023-04-18T17:36:45.140Z,16.70
2023-04-18T17:41:47.316Z,16.64
2023-04-18T17:46:50.004Z,16.58
2023-04-18T17:51:49.594Z,16.45
2023-04-18T17:56:53.310Z,16.10
2023-04-18T18:02:02.520Z,15.79
2023-04-18T18:07:08.946Z,15.67
2023-04-18T18:12:08.253Z,15.57
2023-04-18T18:17:09.426Z,15.38
2023-04-18T18:22:08.704Z,15.31
2023-04-18T18:27:08.471Z,15.11
2023-04-18T18:32:09.264Z,15.20
2023-04-18T18:37:08.548Z,15.29
2023-04-18T18:42:08.407Z,15.32
2023-04-18T18:47:09.080Z,15.18
2023-04-18T18:52:08.088Z,15.16
2023-04-18T18:57:07.168Z,15.07
2023-04-18T19:02:06.212Z,15.13
2023-04-18T19:07:07.449Z,15.04
2023-04-18T19:12:07.176Z,14.95
2023-04-18T19:17:06.147Z,14.94
2023-04-18T19:22:07.010Z,14.96
2023-04-18T19:27:05.938Z,15.00
2023-04-18T19:32:05.200Z,15.00
2023-04-18T19:37:04.612Z,14.87
2023-04-18T19:42:05.814Z,14.88
2023-04-18T19:47:05.240Z,14.98
2023-04-18T19:52:04.256Z,14.94
2023-04-18T19:57:04.779Z,14.65
2023-04-18T20:02:06.046Z,14.58
2023-04-18T20:07:05.982Z,14.64
2023-04-18T20:12:06.718Z,14.66
2023-04-18T20:17:06.022Z,14.57
2023-04-18T20:22:05.254Z,14.61
2023-04-18T20:27:06.380Z,14.58
2023-04-18T20:32:05.905Z,14.46
2023-04-18T20:37:07.507Z,14.48
2023-04-18T20:42:08.172Z,14.45
2023-04-18T20:47:07.231Z,14.43
2023-04-18T20:52:09.653Z,14.42
2023-04-18T20:57:10.109Z,14.44
2023-04-18T21:02:10.101Z,14.31
2023-04-18T21:07:09.565Z,14.13
2023-04-18T21:12:09.995Z,13.92
2023-04-18T21:17:09.882Z,13.82
2023-04-18T21:22:08.875Z,13.84
2023-04-18T21:27:10.591Z,13.72
2023-04-18T21:32:09.684Z,13.56
2023-04-18T21:37:08.539Z,13.58
2023-04-18T21:42:07.543Z,13.57
2023-04-18T21:47:07.908Z,13.58
2023-04-18T21:52:08.537Z,13.45
2023-04-18T21:57:07.487Z,13.35
2023-04-18T22:02:09.015Z,13.42
2023-04-18T22:07:09.030Z,13.45
2023-04-18T22:12:08.767Z,13.47
2023-04-18T22:17:09.380Z,13.49
2023-04-18T22:22:08.252Z,13.49
2023-04-18T22:27:07.253Z,13.52
2023-04-18T22:32:06.843Z,13.34
2023-04-18T22:37:07.903Z,13.14
2023-04-18T22:42:06.892Z,13.12
2023-04-18T22:47:06.430Z,13.08
2023-04-18T22:52:08.406Z,13.13
2023-04-18T22:57:07.499Z,13.18
2023-04-18T23:02:06.930Z,13.10
2023-04-18T23:07:09.191Z,13.03
2023-04-18T23:12:09.795Z,12.81
2023-04-18T23:17:09.219Z,12.72
2023-04-18T23:22:10.067Z,12.71
2023-04-18T23:27:09.397Z,12.73
2023-04-18T23:32:08.694Z,12.59
2023-04-18T23:37:08.335Z,12.49
2023-04-18T23:42:09.266Z,12.58
2023-04-18T23:47:08.696Z,12.64
2023-04-18T23:52:08.667Z,12.60
2023-04-18T23:57:09.590Z,12.57
